createdAt,value
2018-09-20T05:30:57.345Z,99.60
2018-09-20T05:36:01.735Z,99.80
2018-09-20T05:41:05.974Z,99.90
2018-09-20T05:46:09.952Z,99.60
2018-09-20T05:51:13.433Z,99.70
2018-09-20T05:56:16.900Z,99.40
2018-09-20T06:14:49.872Z,96.20
2018-09-20T06:30:14.063Z,94.20
2018-09-20T06:35:17.716Z,91.50
2018-09-20T06:40:22.627Z,76.50
2018-09-20T06:45:27.263Z,61.50
2018-09-20T06:50:30.833Z,54.60
2018-09-20T06:55:34.728Z,50.20
2018-09-20T07:00:38.278Z,46.80
2018-09-20T07:05:41.809Z,44.90
2018-09-20T07:10:45.348Z,43.10
2018-09-20T07:15:49.256Z,42.20
2018-09-20T07:20:53.811Z,41.90
2018-09-20T07:25:57.771Z,42.10
2018-09-20T07:31:01.316Z,41.70
2018-09-20T07:36:04.807Z,41.10
2018-09-20T07:41:08.301Z,40.60
2018-09-20T07:46:13.075Z,39.40
2018-09-20T07:51:17.079Z,40.40
2018-09-20T07:56:21.362Z,39.30
2018-09-20T08:01:25.567Z,37.40
2018-09-20T08:06:29.126Z,36.70
2018-09-20T08:11:32.606Z,36.50
2018-09-20T08:16:36.295Z,35.50
2018-09-20T08:21:40.313Z,34.00
2018-09-20T08:26:44.079Z,33.70
2018-09-20T08:31:48.342Z,34.40
2018-09-20T08:36:52.394Z,34.50
2018-09-20T08:41:55.920Z,34.40
2018-09-20T08:46:59.400Z,33.00
2018-09-20T08:52:02.934Z,33.20
2018-09-20T08:57:06.684Z,33.10
2018-09-20T09:02:10.421Z,33.50
2018-09-20T09:07:14.567Z,35.30
2018-09-20T09:12:18.956Z,34.20
2018-09-20T09:17:22.470Z,34.60
2018-09-20T09:22:25.930Z,35.30
2018-09-20T09:27:29.510Z,35.90
2018-09-20T09:32:33.123Z,35.70
2018-09-20T09:37:36.604Z,34.80
2018-09-20T09:42:40.636Z,35.00
2018-09-20T09:47:44.580Z,36.90
2018-09-20T09:52:48.946Z,37.50
2018-09-20T09:57:53.069Z,37.10
2018-09-20T10:02:57.831Z,39.90
2018-09-20T10:08:01.312Z,42.70
2018-09-20T10:13:05.733Z,42.50
2018-09-20T10:18:10.221Z,45.90
2018-09-20T10:23:13.714Z,45.70
2018-09-20T10:28:17.259Z,47.20
2018-09-20T10:33:20.769Z,45.10
2018-09-20T10:38:24.729Z,46.00
2018-09-20T10:43:28.603Z,46.80
2018-09-20T10:48:33.017Z,46.40
2018-09-20T10:53:36.518Z,45.10
2018-09-20T10:58:40.287Z,46.50
2018-09-20T11:03:44.049Z,47.00
2018-09-20T11:08:48.368Z,47.60
2018-09-20T11:13:52.429Z,45.10
2018-09-20T11:18:56.734Z,43.90
2018-09-20T11:24:00.348Z,44.50
2018-09-20T11:29:03.829Z,45.40
2018-09-20T11:34:07.913Z,44.20
2018-09-20T11:39:13.705Z,45.80
2018-09-20T11:44:17.245Z,44.40
2018-09-20T11:49:20.912Z,44.80
2018-09-20T11:54:24.406Z,44.60
2018-09-20T11:59:28.162Z,45.30
2018-09-20T12:04:32.220Z,43.60
2018-09-20T12:09:36.502Z,43.90
2018-09-20T12:14:40.489Z,43.60
2018-09-20T12:19:44.398Z,44.10
2018-09-20T12:24:47.964Z,42.70
2018-09-20T12:29:51.899Z,44.00
2018-09-20T12:34:56.232Z,43.00
2018-09-20T12:40:00.279Z,44.60
2018-09-20T12:45:04.346Z,43.90
2018-09-20T12:50:08.129Z,43.40
2018-09-20T12:55:11.747Z,44.10
2018-09-20T13:00:15.276Z,44.90
2018-09-20T13:05:18.803Z,42.00
2018-09-20T13:10:23.840Z,44.70
2018-09-20T13:15:27.535Z,43.00
2018-09-20T13:20:31.383Z,44.30
2018-09-20T13:25:35.834Z,44.10
2018-09-20T13:30:39.341Z,42.90
2018-09-20T13:35:42.895Z,43.10
2018-09-20T13:40:46.774Z,42.80
2018-09-20T13:45:50.615Z,42.60
2018-09-20T13:50:54.548Z,44.60
2018-09-20T13:55:58.568Z,41.80
2018-09-20T14:01:02.846Z,42.30
2018-09-20T14:06:06.718Z,43.70
2018-09-20T14:11:11.004Z,43.90
2018-09-20T14:16:15.574Z,43.80
2018-09-20T14:21:19.208Z,44.30
2018-09-20T14:26:23.021Z,44.90
2018-09-20T14:31:26.759Z,45.20
2018-09-20T14:36:30.474Z,44.40
2018-09-20T14:41:35.561Z,45.40
2018-09-20T14:46:39.793Z,43.80
2018-09-20T14:51:43.512Z,46.10
2018-09-20T14:56:47.874Z,45.00
2018-09-20T15:01:51.464Z,45.90
2018-09-20T15:06:55.548Z,45.90
2018-09-20T15:11:59.584Z,45.90
2018-09-20T15:17:03.694Z,45.60
2018-09-20T15:22:09.235Z,45.50
2018-09-20T15:27:13.166Z,45.90
2018-09-20T15:32:17.742Z,46.40
2018-09-20T15:37:21.785Z,47.20
2018-09-20T15:42:25.832Z,46.50
2018-09-20T15:47:30.010Z,46.70
2018-09-20T15:52:33.813Z,47.80
2018-09-20T15:57:38.050Z,47.40
2018-09-20T16:02:41.934Z,50.00
2018-09-20T16:07:45.877Z,49.60
2018-09-20T16:12:50.104Z,50.70
2018-09-20T16:17:53.670Z,49.30
2018-09-20T16:22:57.382Z,49.40
2018-09-20T16:28:14.033Z,51.90
2018-09-20T16:33:29.577Z,51.50
2018-09-20T16:38:43.146Z,55.30
2018-09-20T16:43:47.131Z,56.50
2018-09-20T16:48:51.780Z,57.30
2018-09-20T16:53:55.715Z,58.90
2018-09-20T16:58:59.216Z,63.10
2018-09-20T17:04:03.284Z,63.70
2018-09-20T17:42:04.633Z,70.30
2018-09-20T17:47:08.518Z,71.40
2018-09-20T17:52:12.428Z,72.50
2018-09-20T17:57:16.371Z,73.70
2018-09-20T18:02:20.252Z,73.30
2018-09-20T18:07:26.429Z,72.50
2018-09-20T18:12:31.177Z,72.70
2018-09-20T18:17:35.070Z,73.60
2018-09-20T18:22:39.935Z,73.70
2018-09-20T18:27:45.205Z,74.90
2018-09-20T18:32:48.943Z,75.50
2018-09-20T18:37:53.052Z,77.10
2018-09-20T18:42:56.895Z,76.40
2018-09-20T18:48:01.902Z,76.60
2018-09-20T18:53:09.921Z,76.80
2018-09-20T18:58:14.671Z,77.20
2018-09-20T19:03:19.732Z,77.90
2018-09-20T19:08:23.793Z,78.90
2018-09-20T19:13:28.350Z,79.00
2018-09-20T19:18:32.233Z,78.50
2018-09-20T19:23:36.230Z,78.50
2018-09-20T19:28:39.985Z,79.20
2018-09-20T19:33:43.743Z,78.60
2018-09-20T19:38:48.199Z,79.60
2018-09-20T19:43:52.266Z,79.60
2018-09-20T19:48:55.809Z,80.60
2018-09-20T19:53:59.640Z,82.60
2018-09-20T19:59:03.586Z,84.70
2018-09-20T20:04:08.468Z,85.10
2018-09-20T20:09:13.876Z,85.40
2018-09-20T20:14:17.464Z,84.90
2018-09-20T20:19:21.285Z,83.60
2018-09-20T20:24:24.939Z,84.70
2018-09-20T20:29:28.838Z,85.40
2018-09-20T20:34:33.023Z,86.00
2018-09-20T20:39:37.712Z,86.50
2018-09-20T20:44:42.106Z,87.50
2018-09-20T20:49:46.426Z,88.00
2018-09-20T20:54:50.354Z,88.40
2018-09-20T20:59:54.908Z,90.00
2018-09-20T21:04:58.599Z,90.10
2018-09-20T21:10:02.264Z,90.40
2018-09-20T21:15:07.538Z,89.90
2018-09-20T21:20:11.366Z,90.10
2018-09-20T21:25:15.053Z,89.70
2018-09-20T21:30:19.183Z,90.10
2018-09-20T21:35:22.832Z,90.70
2018-09-20T21:40:28.638Z,90.70
2018-09-20T21:45:32.565Z,91.00
2018-09-20T21:50:36.645Z,91.00
2018-09-20T21:55:40.352Z,90.90
2018-09-20T22:00:48.222Z,91.00
2018-09-20T22:05:52.149Z,90.30
2018-09-20T22:10:56.294Z,88.10
2018-09-20T22:15:59.795Z,90.60
2018-09-20T22:21:03.383Z,91.00
2018-09-20T22:26:07.272Z,91.30
2018-09-20T22:31:11.224Z,91.70
2018-09-20T22:36:15.035Z,91.90
2018-09-20T22:41:18.788Z,91.60
2018-09-20T22:46:23.165Z,91.40
2018-09-20T22:51:26.851Z,91.40
2018-09-20T22:56:30.675Z,91.70
2018-09-20T23:01:34.218Z,92.30
2018-09-20T23:06:37.712Z,92.00
2018-09-20T23:11:41.428Z,92.40
2018-09-20T23:16:45.233Z,92.50
2018-09-20T23:21:49.026Z,91.40
2018-09-20T23:26:53.000Z,92.10
2018-09-20T23:31:56.761Z,92.60
2018-09-20T23:37:00.531Z,91.90
2018-09-20T23:42:04.027Z,91.90
2018-09-20T23:47:07.770Z,92.70
2018-09-20T23:52:11.283Z,92.20
2018-09-20T23:57:14.863Z,92.00
